Time;durP1;ratioP1;P1;durP2;ratioP2;P2;SDS_P1;SDS_P2;PMS_P1;PMS_P2;Temp;Humidity;BMP_temperature;BMP_pressure;BME280_temperature;BME280_humidity;BME280_pressure;Samples;Min_cycle;Max_cycle;Signal;HPM_P1;HPM_P2
2023/03/20 01:15:57;;;;;;;60.90;25.20;;;;;;;4.14;70.50;98820.07;131772;1310;560635;-63
2023/03/20 01:18:59;;;;;;;59.40;25.60;;;;;;;4.90;66.23;98824.62;130545;1292;5321324;-60
2023/03/20 01:22:03;;;;;;;62.30;24.90;;;;;;;4.69;66.89;98827.81;134586;1292;22532;-62
2023/03/20 01:25:05;;;;;;;54.30;23.90;;;;;;;4.83;66.39;98828.68;134551;1292;22562;-61
2023/03/20 01:28:08;;;;;;;58.10;23.80;;;;;;;4.91;66.21;98829.26;134573;1292;22539;-63
2023/03/20 01:31:10;;;;;;;54.40;23.20;;;;;;;4.92;66.29;98826.64;134565;1292;22548;-62
2023/03/20 01:34:15;;;;;;;53.10;22.50;;;;;;;4.93;66.25;98830.22;134565;1292;24504;-60
2023/03/20 01:37:17;;;;;;;54.50;24.50;;;;;;;5.00;65.71;98832.20;134564;1292;22543;-61
2023/03/20 01:40:19;;;;;;;61.40;28.50;;;;;;;4.85;66.08;98829.63;134586;1292;25297;-60
2023/03/20 01:43:22;;;;;;;59.20;27.40;;;;;;;4.85;65.93;98828.79;134584;1292;23744;-60
2023/03/20 01:46:24;;;;;;;61.30;25.70;;;;;;;4.96;66.11;98825.23;134568;1292;22571;-61
2023/03/20 01:49:27;;;;;;;56.40;24.20;;;;;;;5.10;65.87;98823.50;135317;1281;24806;-62
2023/03/20 01:52:30;;;;;;;51.00;23.30;;;;;;;5.11;65.63;98819.83;135346;1281;22530;-62
2023/03/20 01:55:32;;;;;;;51.70;23.00;;;;;;;5.22;65.46;98818.20;135356;1281;22528;-62
2023/03/20 01:58:36;;;;;;;51.50;23.70;;;;;;;5.32;65.55;98818.52;135328;1281;22618;-62
2023/03/20 02:01:38;;;;;;;53.20;22.90;;;;;;;5.24;65.32;98822.60;135326;1281;24822;-62
2023/03/20 02:04:40;;;;;;;52.90;22.80;;;;;;;5.30;64.85;98817.53;135350;1261;23144;-61
2023/03/20 02:07:43;;;;;;;56.10;24.20;;;;;;;5.35;64.57;98819.08;135330;1281;22545;-61
2023/03/20 02:10:45;;;;;;;57.00;24.80;;;;;;;5.41;64.33;98822.48;135316;1281;22617;-64
2023/03/20 02:13:47;;;;;;;58.30;24.70;;;;;;;5.39;64.40;98823.08;135354;1281;22529;-63
2023/03/20 02:16:50;;;;;;;54.10;23.40;;;;;;;5.31;64.34;98821.67;135227;1281;22537;-62
2023/03/20 02:19:52;;;;;;;57.40;23.50;;;;;;;5.22;64.83;98818.90;135292;1281;22628;-62
2023/03/20 02:22:55;;;;;;;;;;;;;;;5.16;64.85;98817.72;135355;1281;25269;-63
2023/03/20 02:25:57;;;;;;;78.20;31.30;;;;;;;5.08;64.96;98818.02;135342;1281;22533;-63
2023/03/20 02:29:00;;;;;;;91.80;37.80;;;;;;;5.01;65.44;98820.73;135366;1281;24087;-59
2023/03/20 02:32:02;;;;;;;;;;;;;;;4.75;66.53;98826.40;135313;1281;22546;-63
2023/03/20 02:35:04;;;;;;;75.10;31.00;;;;;;;4.91;65.93;98833.78;135378;1281;22530;-62
2023/03/20 02:38:07;;;;;;;58.90;25.30;;;;;;;4.85;66.29;98830.17;135272;1281;25419;-63
2023/03/20 02:41:09;;;;;;;56.20;24.00;;;;;;;4.68;67.16;98827.85;135357;1281;22532;-60
2023/03/20 02:44:11;;;;;;;62.10;25.30;;;;;;;4.62;67.70;98824.59;135324;1262;22529;-62
2023/03/20 02:47:14;;;;;;;52.10;23.20;;;;;;;4.74;67.69;98819.47;135364;1264;22977;-63
2023/03/20 02:50:16;;;;;;;57.10;24.30;;;;;;;4.48;68.90;98818.21;135367;1281;22529;-62
2023/03/20 02:53:19;;;;;;;54.80;23.60;;;;;;;4.28;69.96;98821.67;135380;1281;22577;-60
2023/03/20 02:56:22;;;;;;;57.60;25.10;;;;;;;4.26;70.30;98817.77;135343;1281;22543;-62
2023/03/20 02:59:24;;;;;;;60.30;25.30;;;;;;;4.53;68.89;98816.42;135357;1280;22565;-63
2023/03/20 03:02:27;;;;;;;59.70;25.80;;;;;;;4.61;68.54;98816.69;135360;1281;22589;-65
2023/03/20 03:05:29;;;;;;;61.20;25.60;;;;;;;4.51;68.90;98814.78;135331;1280;22539;-62
2023/03/20 03:08:32;;;;;;;57.60;25.60;;;;;;;4.60;68.77;98817.39;135348;1281;22534;-64
2023/03/20 03:11:34;;;;;;;64.50;26.40;;;;;;;4.69;68.46;98820.38;135362;1281;22536;-64
2023/03/20 03:14:37;;;;;;;67.50;29.50;;;;;;;4.77;68.43;98821.98;135330;1281;22551;-67
2023/03/20 03:17:39;;;;;;;76.80;32.40;;;;;;;4.76;68.18;98819.77;135396;1281;22533;-63
2023/03/20 03:20:42;;;;;;;78.90;31.20;;;;;;;4.66;68.45;98820.83;135383;1281;22590;-67
2023/03/20 03:23:45;;;;;;;62.70;25.80;;;;;;;4.75;68.19;98818.41;135370;1281;22543;-66
2023/03/20 03:26:48;;;;;;;57.80;23.60;;;;;;;4.83;68.10;98812.73;135403;1261;22541;-65
2023/03/20 03:29:51;;;;;;;66.40;26.50;;;;;;;4.83;68.37;98816.89;135368;1265;22533;-61
2023/03/20 03:32:53;;;;;;;59.50;27.70;;;;;;;4.87;68.47;98812.61;135317;1281;26556;-63
2023/03/20 03:35:56;;;;;;;63.10;26.70;;;;;;;4.97;68.40;98812.06;135357;1281;22543;-64
2023/03/20 03:38:58;;;;;;;62.10;25.90;;;;;;;4.98;68.73;98811.48;135401;1281;22550;-66
2023/03/20 03:42:01;;;;;;;59.80;26.00;;;;;;;4.95;68.94;98807.80;135397;1281;25341;-62
2023/03/20 03:45:04;;;;;;;61.90;27.10;;;;;;;4.82;69.67;98810.85;135401;1265;22565;-64
2023/03/20 03:48:06;;;;;;;68.70;29.10;;;;;;;4.97;69.54;98809.43;135366;1281;22543;-64
2023/03/20 03:51:09;;;;;;;64.00;28.10;;;;;;;5.01;69.22;98805.99;135362;1281;22540;-64
2023/03/20 03:54:11;;;;;;;69.00;28.20;;;;;;;4.88;69.59;98802.31;135393;1281;22545;-64
2023/03/20 03:57:15;;;;;;;;;;;;;;;4.93;69.69;98798.83;135350;1281;22591;-62
2023/03/20 04:00:17;;;;;;;80.70;34.40;;;;;;;4.96;69.47;98801.34;135331;1281;25103;-67
2023/03/20 04:03:21;;;;;;;77.00;34.00;;;;;;;4.86;70.19;98799.31;135333;1281;22545;-62
2023/03/20 04:06:24;;;;;;;76.80;31.40;;;;;;;4.83;70.40;98799.73;135374;1281;22568;-61
2023/03/20 04:09:27;;;;;;;70.00;29.90;;;;;;;4.95;70.11;98799.48;135319;1281;22615;-63
2023/03/20 04:12:30;;;;;;;76.50;30.30;;;;;;;5.09;69.91;98798.78;135360;1281;22572;-64
2023/03/20 04:15:32;;;;;;;78.20;30.60;;;;;;;5.18;69.44;98802.56;135384;1263;22528;-63
2023/03/20 04:18:35;;;;;;;82.90;32.50;;;;;;;5.21;69.59;98801.23;135346;1281;23392;-62
2023/03/20 04:21:37;;;;;;;74.10;32.70;;;;;;;5.14;70.37;98801.48;135269;1281;22541;-66
2023/03/20 04:24:39;;;;;;;79.40;32.80;;;;;;;5.28;69.90;98798.73;135326;1281;22531;-64
2023/03/20 04:27:42;;;;;;;77.10;30.80;;;;;;;5.42;69.55;98794.69;135360;1281;25407;-62
2023/03/20 04:30:47;;;;;;;76.80;32.60;;;;;;;5.42;70.05;98796.06;135341;1281;22541;-63
2023/03/20 04:33:49;;;;;;;78.80;33.40;;;;;;;5.47;70.11;98795.34;135360;1281;22538;-63
2023/03/20 04:36:51;;;;;;;82.00;36.10;;;;;;;5.37;70.75;98793.67;135351;1281;23911;-63
2023/03/20 04:39:54;;;;;;;82.40;35.30;;;;;;;5.31;71.01;98794.77;135352;1281;22534;-63
2023/03/20 04:42:56;;;;;;;83.30;33.50;;;;;;;5.26;71.53;98800.70;135329;1281;22546;-62
2023/03/20 04:45:59;;;;;;;70.60;30.70;;;;;;;5.22;71.98;98803.28;135347;1281;22665;-61
2023/03/20 04:49:01;;;;;;;69.90;30.70;;;;;;;5.25;71.71;98803.34;135319;1281;24443;-59
2023/03/20 04:52:04;;;;;;;71.80;30.30;;;;;;;5.31;71.98;98805.54;135308;1281;22568;-60
2023/03/20 04:55:06;;;;;;;70.30;29.10;;;;;;;5.28;72.23;98804.44;135319;1257;22569;-60
2023/03/20 04:58:09;;;;;;;57.60;27.00;;;;;;;5.23;73.06;98806.36;135339;1281;22788;-60
2023/03/20 05:01:11;;;;;;;;;;;;;;;5.45;71.98;98807.76;135361;1281;22511;-62
2023/03/20 05:04:14;;;;;;;99.10;39.00;;;;;;;5.31;72.51;98810.89;135338;1281;22527;-66
2023/03/20 05:07:16;;;;;;;89.30;37.00;;;;;;;5.41;72.13;98819.01;135354;1281;22547;-65
2023/03/20 05:10:19;;;;;;;80.20;34.70;;;;;;;5.45;72.98;98817.81;135366;1281;22541;-60
2023/03/20 05:13:21;;;;;;;88.10;35.70;;;;;;;5.61;72.67;98814.39;135341;1281;25413;-60
2023/03/20 05:16:23;;;;;;;91.00;35.00;;;;;;;5.75;72.71;98812.58;135370;1281;22569;-64
2023/03/20 05:19:26;;;;;;;128.20;46.80;;;;;;;5.90;71.56;98814.59;135349;1281;22628;-62
2023/03/20 05:22:28;;;;;;;101.80;38.40;;;;;;;5.82;71.44;98809.19;135372;1281;22533;-65
2023/03/20 05:25:31;;;;;;;100.30;40.50;;;;;;;5.91;71.43;98812.84;135326;1281;22549;-62
2023/03/20 05:28:33;;;;;;;143.60;55.90;;;;;;;6.05;71.42;98811.05;135313;1281;24093;-61
2023/03/20 05:31:35;;;;;;;130.10;50.00;;;;;;;6.19;71.02;98817.22;135351;1281;22533;-60
2023/03/20 05:34:38;;;;;;;96.90;42.30;;;;;;;6.06;71.54;98820.52;135333;1281;22575;-59
2023/03/20 05:37:40;;;;;;;88.60;35.20;;;;;;;6.01;72.57;98823.17;135369;1281;22684;-60
2023/03/20 05:40:43;;;;;;;82.90;33.60;;;;;;;6.08;72.81;98823.03;135357;1281;22597;-61
2023/03/20 05:43:45;;;;;;;62.00;27.10;;;;;;;6.14;73.75;98826.42;135308;1281;22574;-60
2023/03/20 05:46:47;;;;;;;60.70;26.80;;;;;;;6.30;73.23;98828.92;135347;1281;25413;-59
2023/03/20 05:49:50;;;;;;;65.90;28.60;;;;;;;6.46;73.43;98826.98;135388;1281;22558;-61
2023/03/20 05:52:52;;;;;;;;;;;;;;;6.78;72.87;98829.23;135289;1281;22540;-61
2023/03/20 05:55:55;;;;;;;62.10;28.70;;;;;;;6.94;72.56;98831.45;135384;1281;22608;-60
2023/03/20 05:58:57;;;;;;;67.40;30.00;;;;;;;7.15;72.21;98832.21;135336;1281;25324;-62
2023/03/20 06:02:00;;;;;;;58.40;28.30;;;;;;;7.29;72.06;98832.58;135353;1281;22543;-66
2023/03/20 06:05:02;;;;;;;65.90;30.00;;;;;;;7.27;72.66;98835.64;135352;1262;22625;-64
2023/03/20 06:08:04;;;;;;;69.60;33.70;;;;;;;7.43;71.99;98836.81;135343;1281;22657;-62
2023/03/20 06:11:07;;;;;;;77.30;36.00;;;;;;;7.45;72.30;98836.69;135318;1281;22563;-60
2023/03/20 06:14:09;;;;;;;71.70;33.30;;;;;;;7.56;72.45;98841.02;135335;1281;22523;-63
2023/03/20 06:17:12;;;;;;;76.50;35.40;;;;;;;7.52;73.44;98849.45;135350;1281;22530;-66
2023/03/20 06:20:14;;;;;;;77.20;35.00;;;;;;;7.53;74.02;98850.93;135336;1281;22537;-64
2023/03/20 06:23:16;;;;;;;70.10;32.50;;;;;;;7.74;74.14;98849.58;135340;1281;24241;-62
2023/03/20 06:26:19;;;;;;;68.10;31.80;;;;;;;8.01;73.55;98847.91;135231;1281;22534;-63
2023/03/20 06:29:21;;;;;;;70.40;33.90;;;;;;;8.14;73.25;98850.57;135365;1281;22526;-64
2023/03/20 06:32:23;;;;;;;69.60;33.00;;;;;;;8.36;73.59;98852.44;135370;1281;22700;-63
2023/03/20 06:35:29;;;;;;;75.20;34.20;;;;;;;8.49;73.41;98858.24;135310;1281;25741;-63
2023/03/20 06:38:32;;;;;;;67.30;34.20;;;;;;;8.51;73.44;98859.89;135338;1281;22656;-63
2023/03/20 06:41:34;;;;;;;72.30;33.90;;;;;;;8.54;74.35;98860.59;135356;1281;22531;-62
2023/03/20 06:44:37;;;;;;;69.90;33.80;;;;;;;8.70;74.28;98860.65;135352;1281;22538;-63
2023/03/20 06:47:39;;;;;;;69.20;32.90;;;;;;;8.77;73.10;98862.52;135345;1281;22532;-64
2023/03/20 06:50:42;;;;;;;65.90;32.70;;;;;;;8.77;73.30;98864.25;135348;1281;22810;-62
2023/03/20 06:53:44;;;;;;;68.30;31.90;;;;;;;8.79;73.13;98863.11;135342;1262;22657;-60
2023/03/20 06:56:46;;;;;;;64.70;32.10;;;;;;;8.71;73.98;98865.27;135378;1281;26026;-60
2023/03/20 06:59:49;;;;;;;63.30;30.40;;;;;;;8.73;73.84;98865.88;135348;1262;22742;-62
2023/03/20 07:02:52;;;;;;;61.80;30.30;;;;;;;8.74;74.31;98867.04;135257;1281;22533;-62
2023/03/20 07:05:54;;;;;;;60.40;30.50;;;;;;;8.91;73.33;98868.60;135349;1281;22575;-61
2023/03/20 07:08:57;;;;;;;64.50;30.40;;;;;;;8.94;73.20;98869.80;135336;1281;24248;-61
2023/03/20 07:11:59;;;;;;;63.50;30.80;;;;;;;8.97;73.16;98869.32;135342;1281;22533;-64
2023/03/20 07:15:01;;;;;;;62.30;29.40;;;;;;;8.97;72.75;98872.30;135317;1262;22526;-61
2023/03/20 07:18:04;;;;;;;61.00;30.80;;;;;;;8.98;73.10;98872.05;135351;1281;22530;-64
2023/03/20 07:21:06;;;;;;;64.80;32.40;;;;;;;9.02;72.75;98877.27;135279;1281;22560;-60
2023/03/20 07:24:09;;;;;;;66.00;33.70;;;;;;;9.11;73.04;98874.64;135331;1274;25449;-62
2023/03/20 07:27:11;;;;;;;64.30;30.30;;;;;;;9.08;74.06;98881.46;135375;1281;22540;-68
2023/03/20 07:30:13;;;;;;;63.90;32.30;;;;;;;8.98;74.84;98881.46;135329;1281;24207;-65
2023/03/20 07:33:16;;;;;;;63.40;32.10;;;;;;;9.05;74.59;98881.45;135332;1281;22541;-63
2023/03/20 07:36:18;;;;;;;70.40;33.10;;;;;;;9.04;75.17;98882.05;135314;1281;22532;-63
2023/03/20 07:39:20;;;;;;;64.60;34.50;;;;;;;9.06;76.28;98888.34;135327;1281;22545;-64
2023/03/20 07:42:23;;;;;;;64.40;33.80;;;;;;;9.23;76.71;98888.67;135347;1281;22538;-63
2023/03/20 07:45:25;;;;;;;65.90;32.60;;;;;;;9.31;76.47;98887.90;135352;1262;22614;-62
2023/03/20 07:48:28;;;;;;;61.60;32.40;;;;;;;9.26;77.80;98889.08;135198;1281;22543;-63
2023/03/20 07:51:30;;;;;;;67.60;34.30;;;;;;;9.20;79.23;98890.95;135364;1281;22543;-64
2023/03/20 07:54:32;;;;;;;61.40;33.20;;;;;;;9.21;81.05;98890.38;135348;1281;25382;-63
2023/03/20 07:57:35;;;;;;;83.60;44.70;;;;;;;9.32;81.67;98893.44;135363;1281;22552;-64
2023/03/20 08:00:38;;;;;;;66.00;35.70;;;;;;;9.42;80.96;98896.71;135258;1281;22564;-62
2023/03/20 08:03:40;;;;;;;62.50;34.00;;;;;;;9.58;81.20;98901.29;135373;1281;22522;-62
2023/03/20 08:06:43;;;;;;;62.30;32.20;;;;;;;9.53;82.03;98901.50;135273;1281;22532;-62
2023/03/20 08:09:45;;;;;;;63.70;33.90;;;;;;;9.59;81.66;98898.95;135339;1281;22568;-62
2023/03/20 08:12:47;;;;;;;60.40;33.30;;;;;;;9.63;81.55;98901.48;135360;1281;24192;-63
2023/03/20 08:15:50;;;;;;;;;;;;;;;9.73;81.84;98900.59;135352;1281;24229;-63
2023/03/20 08:18:57;;;;;;;60.80;31.50;;;;;;;9.92;82.42;98901.94;135352;1281;22542;-61
2023/03/20 08:22:01;;;;;;;62.90;32.50;;;;;;;9.98;82.47;98902.30;135339;1281;22543;-62
2023/03/20 08:25:03;;;;;;;61.60;34.30;;;;;;;10.08;82.05;98899.47;135299;1281;22526;-63
2023/03/20 08:28:06;;;;;;;;;;;;;;;10.18;82.60;98902.08;135356;1262;23383;-60
2023/03/20 08:31:08;;;;;;;67.00;37.00;;;;;;;10.23;81.55;98904.74;135231;1281;22522;-65
2023/03/20 08:34:11;;;;;;;62.00;34.40;;;;;;;10.36;81.23;98904.16;135379;1262;22523;-63
2023/03/20 08:37:14;;;;;;;63.00;34.40;;;;;;;10.51;81.59;98905.92;135321;1281;22522;-61
2023/03/20 08:40:17;;;;;;;61.90;35.20;;;;;;;10.66;81.38;98905.90;135279;1281;24407;-61
2023/03/20 08:43:19;;;;;;;61.80;34.20;;;;;;;10.77;80.22;98907.37;135285;1281;22652;-63
2023/03/20 08:46:21;;;;;;;79.70;41.90;;;;;;;10.91;79.18;98910.33;135322;1281;22526;-65
2023/03/20 08:49:24;;;;;;;73.50;41.40;;;;;;;10.99;79.16;98908.28;135336;1281;24363;-65
2023/03/20 08:52:27;;;;;;;72.40;38.80;;;;;;;11.07;79.24;98908.70;135327;1281;22556;-64
2023/03/20 08:55:29;;;;;;;74.10;42.40;;;;;;;11.16;79.05;98914.09;135335;1266;22539;-63
2023/03/20 08:58:32;;;;;;;71.80;38.80;;;;;;;11.27;78.42;98915.34;135342;1281;22540;-65
2023/03/20 09:01:34;;;;;;;61.30;33.70;;;;;;;11.29;78.65;98914.70;135373;1281;22541;-62
2023/03/20 09:04:37;;;;;;;;;;;;;;;11.36;78.98;98913.39;135338;1281;22534;-63
2023/03/20 09:07:39;;;;;;;58.60;31.70;;;;;;;11.49;78.95;98919.75;135319;1281;22529;-65
2023/03/20 09:10:41;;;;;;;59.20;33.00;;;;;;;11.68;78.34;98919.75;135325;1262;22526;-65
2023/03/20 09:13:44;;;;;;;60.10;35.00;;;;;;;11.92;77.82;98921.20;135279;1281;22640;-63
2023/03/20 09:16:46;;;;;;;60.30;32.20;;;;;;;12.19;77.65;98917.73;135313;1262;24224;-62
2023/03/20 09:19:49;;;;;;;51.90;28.30;;;;;;;12.53;78.06;98907.79;135329;1281;22530;-63
2023/03/20 09:22:51;;;;;;;53.40;28.80;;;;;;;12.98;76.83;98910.45;135304;1281;22536;-61
2023/03/20 09:25:53;;;;;;;47.10;27.20;;;;;;;13.04;75.22;98913.07;135312;1281;23364;-61
2023/03/20 09:28:56;;;;;;;65.90;32.00;;;;;;;13.00;74.40;98909.47;135323;1281;22540;-62
2023/03/20 09:31:58;;;;;;;48.70;27.40;;;;;;;13.10;73.97;98914.87;135341;1281;22614;-61
2023/03/20 09:35:00;;;;;;;50.80;28.20;;;;;;;13.15;73.89;98910.86;135315;1281;22526;-60
2023/03/20 09:38:03;;;;;;;50.10;27.60;;;;;;;13.33;74.13;98906.11;135309;1281;22536;-60
2023/03/20 09:41:06;;;;;;;50.60;25.60;;;;;;;13.60;73.63;98902.42;135290;1281;22543;-61
2023/03/20 09:44:08;;;;;;;55.60;27.90;;;;;;;14.02;73.41;98898.71;135315;1281;22526;-60
2023/03/20 09:47:11;;;;;;;46.00;23.80;;;;;;;14.45;71.01;98902.73;135211;1281;22540;-61
2023/03/20 09:50:13;;;;;;;50.60;26.70;;;;;;;14.61;69.81;98904.65;135289;1281;22541;-60
2023/03/20 09:53:16;;;;;;;;;;;;;;;14.85;68.48;98905.98;135286;1281;24185;-59
2023/03/20 09:56:18;;;;;;;39.00;21.70;;;;;;;14.93;68.76;98908.77;135330;1281;24232;-60
2023/03/20 09:59:20;;;;;;;39.70;20.50;;;;;;;14.92;68.29;98909.14;135311;1281;22540;-63
2023/03/20 10:02:23;;;;;;;41.30;22.10;;;;;;;14.91;67.22;98912.96;135161;1281;25413;-62
2023/03/20 10:05:26;;;;;;;41.40;22.20;;;;;;;14.84;67.55;98906.60;135306;1281;22542;-61
2023/03/20 10:08:28;;;;;;;39.30;20.30;;;;;;;14.96;67.93;98908.34;135324;1281;22542;-62
2023/03/20 10:11:30;;;;;;;37.80;20.10;;;;;;;14.92;66.66;98903.91;135309;1281;24234;-62
2023/03/20 10:14:33;;;;;;;42.40;20.10;;;;;;;14.96;67.80;98898.46;135300;1281;22531;-64
2023/03/20 10:17:35;;;;;;;38.70;20.60;;;;;;;14.97;66.65;98900.20;135193;1281;22556;-61
2023/03/20 10:20:37;;;;;;;;;;;;;;;14.73;68.01;98902.02;135198;1281;22758;-60
2023/03/20 10:23:40;;;;;;;41.50;21.20;;;;;;;14.70;68.60;98896.95;135320;1281;22529;-62
2023/03/20 10:26:42;;;;;;;35.30;17.70;;;;;;;14.80;68.92;98898.69;135338;1281;22536;-63
2023/03/20 10:29:45;;;;;;;34.10;16.70;;;;;;;14.61;68.40;98901.36;135318;1264;22560;-63
2023/03/20 10:32:47;;;;;;;35.30;17.60;;;;;;;14.46;68.99;98906.83;135235;1281;25845;-61
2023/03/20 10:35:50;;;;;;;;;;;;;;;14.55;70.14;98903.69;135291;1281;24218;-61
2023/03/20 10:38:53;;;;;;;;;;;;;;;14.45;70.57;98906.41;135297;1281;22513;-60
2023/03/20 10:41:55;;;;;;;36.00;17.80;;;;;;;14.23;70.63;98911.17;135294;1281;22533;-60
2023/03/20 10:44:58;;;;;;;38.30;18.90;;;;;;;14.04;72.36;98910.29;135324;1281;22529;-61
2023/03/20 10:48:00;;;;;;;37.80;19.30;;;;;;;13.96;71.99;98906.69;135276;1281;22570;-66
2023/03/20 10:51:02;;;;;;;38.50;19.30;;;;;;;13.97;72.90;98903.60;135293;1281;22537;-66
2023/03/20 10:54:05;;;;;;;38.90;19.20;;;;;;;13.93;72.76;98910.42;135285;1281;22529;-61
2023/03/20 10:57:08;;;;;;;38.20;18.80;;;;;;;13.81;73.71;98905.15;135289;1281;22552;-60
2023/03/20 11:00:11;;;;;;;40.70;20.70;;;;;;;13.79;73.07;98903.02;135262;1281;22533;-61
2023/03/20 11:03:14;;;;;;;43.90;23.20;;;;;;;13.79;73.16;98901.74;135269;1281;22688;-60
2023/03/20 11:06:16;;;;;;;39.20;22.50;;;;;;;13.88;73.46;98898.81;135253;1281;22531;-63
2023/03/20 11:09:19;;;;;;;39.40;20.90;;;;;;;13.85;72.99;98901.14;135336;1281;22543;-61
2023/03/20 11:12:21;;;;;;;41.70;23.50;;;;;;;13.66;73.97;98901.30;135135;1281;22548;-63
2023/03/20 11:15:23;;;;;;;41.90;22.80;;;;;;;13.59;74.60;98903.59;135287;1281;22551;-62
2023/03/20 11:18:26;;;;;;;38.10;20.90;;;;;;;13.66;74.56;98904.45;135312;1281;22559;-63
2023/03/20 11:21:28;;;;;;;41.50;22.60;;;;;;;13.61;75.28;98903.59;135310;1281;24224;-62
2023/03/20 11:24:31;;;;;;;40.40;21.30;;;;;;;13.62;75.36;98899.67;135310;1281;22525;-63
2023/03/20 11:27:33;;;;;;;39.30;21.70;;;;;;;13.56;75.77;98898.71;135153;1281;24224;-64
2023/03/20 11:30:35;;;;;;;42.60;23.20;;;;;;;13.56;76.02;98894.81;135256;1281;22555;-63
2023/03/20 11:33:38;;;;;;;44.90;24.50;;;;;;;13.71;76.19;98890.41;135267;1281;22579;-61
2023/03/20 11:36:40;;;;;;;45.60;25.40;;;;;;;13.96;75.37;98888.03;135306;1281;22519;-62
2023/03/20 11:39:42;;;;;;;42.60;22.50;;;;;;;13.99;73.13;98893.97;135305;1270;22642;-65
2023/03/20 11:42:45;;;;;;;43.90;24.00;;;;;;;13.86;73.54;98890.20;135301;1281;23929;-62
2023/03/20 11:45:47;;;;;;;43.60;23.10;;;;;;;13.80;74.43;98888.19;135257;1281;22548;-61
2023/03/20 11:48:49;;;;;;;45.50;25.00;;;;;;;13.77;74.57;98886.09;135312;1269;22530;-63
2023/03/20 11:51:52;;;;;;;43.40;25.40;;;;;;;13.67;74.19;98880.85;135258;1281;23133;-60
2023/03/20 11:54:54;;;;;;;;;;;;;;;13.66;74.95;98880.02;135183;1281;22553;-61
2023/03/20 11:57:57;;;;;;;45.30;24.20;;;;;;;13.62;74.94;98873.81;135325;1281;22539;-61
2023/03/20 12:00:59;;;;;;;45.90;24.10;;;;;;;13.49;75.68;98878.65;135315;1281;25266;-63
2023/03/20 12:04:02;;;;;;;;;;;;;;;13.35;77.54;98876.27;135309;1281;24417;-62
2023/03/20 12:07:05;;;;;;;48.30;26.30;;;;;;;13.28;78.24;98876.98;135299;1265;22525;-61
2023/03/20 12:10:07;;;;;;;50.60;28.50;;;;;;;13.32;78.69;98871.05;135313;1281;22533;-61
2023/03/20 12:13:11;;;;;;;48.10;26.40;;;;;;;13.44;78.87;98866.14;135308;1281;22533;-61
2023/03/20 12:16:13;;;;;;;49.80;26.10;;;;;;;13.56;79.36;98869.05;135301;1281;22566;-63
2023/03/20 12:19:16;;;;;;;;;;;;;;;13.68;79.30;98864.28;135337;1281;22517;-61
2023/03/20 12:22:20;;;;;;;45.70;26.50;;;;;;;13.89;79.09;98857.80;135281;1281;22542;-60
2023/03/20 12:25:23;;;;;;;47.00;26.30;;;;;;;14.10;78.43;98856.44;135292;1281;22574;-63
2023/03/20 12:28:25;;;;;;;47.80;27.50;;;;;;;14.35;77.85;98858.95;135322;1281;22584;-61
2023/03/20 12:31:28;;;;;;;46.90;26.90;;;;;;;14.73;75.67;98854.31;135290;1281;22529;-61
2023/03/20 12:34:31;;;;;;;47.50;27.20;;;;;;;14.64;76.13;98852.86;135294;1280;22531;-61
2023/03/20 12:37:34;;;;;;;47.10;27.50;;;;;;;14.59;76.14;98849.95;135299;1271;22599;-63
2023/03/20 12:40:36;;;;;;;48.80;27.80;;;;;;;14.72;76.32;98853.02;135302;1281;22539;-60
2023/03/20 12:43:38;;;;;;;46.70;26.70;;;;;;;14.86;75.13;98850.52;135257;1281;22551;-62
2023/03/20 12:46:41;;;;;;;46.10;25.80;;;;;;;14.85;75.14;98848.84;135169;1281;22532;-61
2023/03/20 12:49:43;;;;;;;44.90;27.00;;;;;;;14.92;74.25;98851.62;135312;1281;22545;-62
2023/03/20 12:52:46;;;;;;;48.90;27.60;;;;;;;14.90;73.29;98849.11;135220;1281;25497;-61
2023/03/20 12:55:49;;;;;;;47.10;26.80;;;;;;;14.85;74.07;98843.15;135290;1281;22529;-62
2023/03/20 12:58:51;;;;;;;;;;;;;;;14.96;74.29;98842.67;135126;1281;23266;-59
2023/03/20 13:01:56;;;;;;;45.90;25.50;;;;;;;14.92;74.05;98841.41;135256;1281;22528;-62
2023/03/20 13:04:58;;;;;;;;;;;;;;;15.02;73.24;98844.86;135301;1281;22535;-61
2023/03/20 13:08:01;;;;;;;45.60;25.80;;;;;;;15.13;73.92;98848.73;135295;1263;22734;-61
2023/03/20 13:11:03;;;;;;;;;;;;;;;15.24;72.28;98842.64;135322;1281;22525;-61
2023/03/20 13:14:05;;;;;;;43.40;24.30;;;;;;;15.23;72.12;98842.48;135311;1264;22544;-62
2023/03/20 13:17:08;;;;;;;43.70;25.20;;;;;;;15.19;71.13;98840.84;135296;1281;22525;-61
2023/03/20 13:20:11;;;;;;;;;;;;;;;15.27;70.67;98834.82;131246;1281;5375497;-61
2023/03/20 13:23:13;;;;;;;46.90;25.20;;;;;;;15.42;69.66;98836.40;135296;1268;22532;-62
2023/03/20 13:26:16;;;;;;;46.40;25.60;;;;;;;15.33;69.42;98828.83;135233;1281;22561;-61
2023/03/20 13:29:19;;;;;;;44.20;25.90;;;;;;;15.36;70.55;98824.17;135283;1281;24375;-61
2023/03/20 13:32:22;;;;;;;45.00;25.70;;;;;;;15.32;69.99;98822.92;135253;1281;25217;-60
2023/03/20 13:35:24;;;;;;;;;;;;;;;15.07;69.50;98825.66;135293;1281;23141;-63
2023/03/20 13:38:27;;;;;;;49.10;28.00;;;;;;;14.91;70.23;98824.38;135282;1281;25595;-65
2023/03/20 13:41:29;;;;;;;;;;;;;;;15.04;70.78;98821.04;135342;1281;22520;-62
2023/03/20 13:44:32;;;;;;;49.10;30.00;;;;;;;15.16;69.57;98814.18;135309;1281;22528;-65
2023/03/20 13:47:34;;;;;;;49.70;29.80;;;;;;;15.19;69.95;98815.86;135303;1281;22526;-65
2023/03/20 13:50:36;;;;;;;;;;;;;;;15.23;69.96;98810.05;135312;1281;22534;-61
2023/03/20 13:53:39;;;;;;;49.60;28.50;;;;;;;15.21;68.98;98806.54;135280;1281;22535;-63
2023/03/20 13:56:41;;;;;;;;;;;;;;;15.04;69.27;98809.66;135303;1281;22542;-61
2023/03/20 13:59:44;;;;;;;56.70;32.80;;;;;;;14.86;70.51;98811.63;135288;1281;22541;-68
2023/03/20 14:02:46;;;;;;;53.70;30.50;;;;;;;14.72;71.21;98808.48;135314;1281;22568;-63
2023/03/20 14:05:49;;;;;;;;;;;;;;;14.78;71.18;98812.60;135327;1263;22492;-64
2023/03/20 14:08:51;;;;;;;51.90;30.50;;;;;;;14.74;71.25;98809.69;135320;1281;22542;-61
2023/03/20 14:11:56;;;;;;;55.30;32.90;;;;;;;14.67;71.45;98808.36;135264;1281;22555;-60
2023/03/20 14:14:59;;;;;;;53.60;32.60;;;;;;;14.50;72.26;98807.33;135270;1281;22540;-61
2023/03/20 14:18:01;;;;;;;54.10;31.60;;;;;;;14.37;73.14;98809.92;135263;1262;22537;-63
2023/03/20 14:21:04;;;;;;;53.00;32.10;;;;;;;14.22;73.41;98813.30;135289;1281;22533;-61
2023/03/20 14:24:07;;;;;;;48.30;29.00;;;;;;;14.16;72.61;98808.89;135302;1281;22642;-61
2023/03/20 14:27:09;;;;;;;53.90;33.20;;;;;;;14.18;72.67;98808.31;135268;1281;25489;-60
2023/03/20 14:30:12;;;;;;;51.50;31.40;;;;;;;14.04;73.27;98816.64;135305;1281;22529;-62
2023/03/20 14:33:14;;;;;;;;;;;;;;;13.87;73.84;98819.17;135318;1281;22520;-61
2023/03/20 14:36:17;;;;;;;51.00;30.20;;;;;;;13.82;74.77;98816.88;135301;1281;25231;-61
2023/03/20 14:39:20;;;;;;;;;;;;;;;13.80;75.98;98809.23;135294;1281;22558;-61
2023/03/20 14:42:22;;;;;;;59.20;36.40;;;;;;;13.87;76.57;98803.67;135312;1281;22574;-62
2023/03/20 14:45:25;;;;;;;58.00;35.10;;;;;;;13.87;76.78;98802.05;135292;1281;22540;-62
2023/03/20 14:48:27;;;;;;;54.90;32.80;;;;;;;13.89;77.20;98805.12;135306;1281;22536;-61
2023/03/20 14:51:30;;;;;;;56.50;33.90;;;;;;;13.88;77.30;98805.67;135295;1281;22536;-63
2023/03/20 14:54:33;;;;;;;56.80;34.00;;;;;;;13.92;76.47;98801.52;135291;1266;24243;-62
2023/03/20 14:57:35;;;;;;;;;;;;;;;13.91;77.33;98806.88;135300;1281;22551;-62
2023/03/20 15:00:38;;;;;;;57.10;35.10;;;;;;;13.89;77.27;98805.98;135294;1281;22537;-63
2023/03/20 15:03:40;;;;;;;;;;;;;;;13.94;77.14;98800.13;135121;1281;24401;-60
2023/03/20 15:06:43;;;;;;;54.00;29.50;;;;;;;13.89;77.86;98797.88;135229;1272;23281;-61
2023/03/20 15:09:45;;;;;;;;;;;;;;;13.88;78.09;98795.98;135315;1281;22504;-63
2023/03/20 15:12:47;;;;;;;54.30;31.10;;;;;;;13.94;78.11;98798.77;135321;1281;22586;-62
2023/03/20 15:15:50;;;;;;;52.80;30.60;;;;;;;13.95;78.64;98797.64;135313;1281;22533;-61
2023/03/20 15:18:52;;;;;;;54.10;32.20;;;;;;;13.93;79.42;98796.89;135284;1281;22644;-61